createdAt,value
2019-05-18T00:02:20.090Z,93.81
2019-05-18T00:04:50.448Z,93.98
2019-05-18T00:07:20.918Z,94.37
2019-05-18T00:09:51.535Z,94.61
2019-05-18T00:12:22.044Z,95.07
2019-05-18T00:14:52.492Z,95.52
2019-05-18T00:17:25.590Z,95.73
2019-05-18T00:23:40.402Z,95.80
2019-05-18T00:26:10.774Z,95.97
2019-05-18T00:29:00.550Z,96.01
2019-05-18T00:31:30.919Z,96.17
2019-05-18T00:34:20.767Z,96.46
2019-05-18T00:37:10.595Z,96.86
2019-05-18T00:39:41.019Z,96.98
2019-05-18T00:42:11.451Z,97.25
2019-05-18T00:44:41.819Z,97.36
2019-05-18T00:47:12.221Z,97.50
2019-05-18T00:49:42.584Z,97.75
2019-05-18T00:52:12.951Z,97.93
2019-05-18T00:55:02.734Z,97.99
2019-05-18T00:57:33.087Z,98.25
2019-05-18T01:03:08.229Z,98.65
2019-05-18T01:05:38.603Z,98.61
2019-05-18T01:08:28.383Z,98.72
2019-05-18T01:11:18.187Z,99.04
2019-05-18T01:14:08.021Z,99.16
2019-05-18T01:16:38.416Z,99.15
2019-05-18T01:19:08.841Z,99.33
2019-05-18T01:21:58.617Z,99.37
2019-05-18T01:24:29.021Z,99.34
2019-05-18T01:27:18.772Z,99.37
2019-05-18T01:33:10.676Z,99.93
2019-05-18T01:36:00.434Z,99.96
2019-05-18T01:38:30.931Z,99.78
2019-05-18T01:41:01.366Z,99.81
2019-05-18T01:43:51.126Z,99.97
2019-05-18T01:46:40.908Z,99.93
2019-05-18T01:49:11.284Z,100.00
2019-05-18T01:52:01.064Z,100.00
2019-05-18T01:54:31.467Z,100.00
2019-05-18T01:57:01.941Z,100.00
2019-05-18T01:59:32.317Z,100.00
2019-05-18T02:02:22.070Z,100.00
2019-05-18T02:04:52.476Z,100.00
2019-05-18T02:07:42.244Z,100.00
2019-05-18T02:10:32.032Z,100.00
2019-05-18T02:13:21.793Z,100.00
2019-05-18T02:15:52.173Z,100.00
2019-05-18T02:18:29.076Z,100.00
2019-05-18T02:21:05.451Z,100.00
2019-05-18T02:23:37.569Z,100.00
2019-05-18T02:29:09.792Z,100.00
2019-05-18T02:31:40.184Z,100.00
2019-05-18T02:34:29.939Z,100.00
2019-05-18T02:37:19.738Z,100.00
2019-05-18T02:42:47.560Z,100.00
2019-05-18T02:45:17.978Z,100.00
2019-05-18T02:47:48.357Z,100.00
2019-05-18T02:50:18.802Z,100.00
2019-05-18T02:53:08.607Z,100.00
2019-05-18T02:55:38.990Z,100.00
2019-05-18T02:58:28.817Z,100.00
2019-05-18T03:01:18.605Z,100.00
2019-05-18T03:03:49.018Z,100.00
2019-05-18T03:06:38.768Z,100.00
2019-05-18T03:09:09.643Z,100.00
2019-05-18T03:11:40.046Z,100.00
2019-05-18T03:14:10.461Z,100.00
2019-05-18T03:17:00.235Z,100.00
2019-05-18T03:19:50.036Z,100.00
2019-05-18T03:22:39.810Z,100.00
2019-05-18T03:25:29.578Z,100.00
2019-05-18T03:27:59.935Z,100.00
2019-05-18T03:30:49.749Z,100.00
2019-05-18T03:33:20.143Z,100.00
2019-05-18T03:36:09.934Z,100.00
2019-05-18T03:38:59.667Z,100.00
2019-05-18T03:41:49.468Z,100.00
2019-05-18T03:44:19.863Z,100.00
2019-05-18T03:47:09.661Z,100.00
2019-05-18T03:49:40.185Z,100.00
2019-05-18T03:52:30.356Z,100.00
2019-05-18T03:55:00.792Z,100.00
2019-05-18T03:57:31.177Z,100.00
2019-05-18T04:00:01.562Z,100.00
2019-05-18T04:02:51.360Z,100.00
2019-05-18T04:05:41.175Z,100.00
2019-05-18T04:08:30.979Z,100.00
2019-05-18T04:11:01.378Z,100.00
2019-05-18T04:13:31.759Z,100.00
2019-05-18T04:16:21.585Z,100.00
2019-05-18T04:18:51.983Z,100.00
2019-05-18T04:21:22.338Z,100.00
2019-05-18T04:23:52.718Z,100.00
2019-05-18T04:26:23.129Z,100.00
2019-05-18T04:28:53.499Z,100.00
2019-05-18T04:31:43.242Z,100.00
2019-05-18T04:34:33.036Z,99.91
2019-05-18T04:37:03.396Z,99.52
2019-05-18T04:39:33.773Z,99.15
2019-05-18T04:42:04.298Z,98.73
2019-05-18T04:44:34.718Z,97.79
2019-05-18T04:47:05.067Z,96.85
2019-05-18T04:50:05.313Z,96.05
2019-05-18T04:52:33.209Z,95.21
2019-05-18T04:55:03.634Z,94.59
2019-05-18T04:57:53.386Z,94.15
2019-05-18T05:00:43.205Z,93.58
2019-05-18T05:03:32.956Z,93.08
2019-05-18T05:06:03.428Z,92.36
2019-05-18T05:08:53.200Z,92.01
2019-05-18T05:11:23.592Z,91.56
2019-05-18T05:14:13.361Z,91.13
2019-05-18T05:16:43.765Z,90.53
2019-05-18T05:19:33.558Z,89.95
2019-05-18T05:22:03.940Z,89.36
2019-05-18T05:24:34.367Z,88.75
2019-05-18T05:27:24.191Z,88.02
2019-05-18T05:29:54.613Z,87.27
2019-05-18T05:32:25.089Z,86.87
2019-05-18T05:35:14.869Z,86.11
2019-05-18T05:37:45.239Z,84.71
2019-05-18T05:40:15.621Z,85.12
2019-05-18T05:45:55.738Z,84.49
2019-05-18T05:48:26.137Z,83.60
2019-05-18T05:51:15.897Z,83.68
2019-05-18T05:54:05.675Z,83.67
2019-05-18T05:56:55.448Z,83.05
2019-05-18T05:59:47.504Z,82.35
2019-05-18T06:02:37.309Z,82.71
2019-05-18T06:08:09.784Z,82.29
2019-05-18T06:10:59.553Z,82.59
2019-05-18T06:13:49.331Z,82.36
2019-05-18T06:16:19.696Z,81.51
2019-05-18T06:18:50.085Z,81.17
2019-05-18T06:21:20.499Z,80.85
2019-05-18T06:24:10.341Z,80.54
2019-05-18T06:26:40.757Z,79.98
2019-05-18T06:29:11.155Z,79.10
2019-05-18T06:31:41.556Z,79.13
2019-05-18T06:34:31.733Z,78.87
2019-05-18T06:37:21.515Z,78.34
2019-05-18T06:42:55.001Z,78.35
2019-05-18T06:45:44.767Z,77.90
2019-05-18T06:48:15.205Z,77.38
2019-05-18T06:51:07.524Z,77.06
2019-05-18T06:53:42.620Z,76.62
2019-05-18T06:59:16.529Z,76.17
2019-05-18T07:01:53.579Z,75.80
2019-05-18T07:04:44.688Z,75.25
2019-05-18T07:07:34.795Z,75.17
2019-05-18T07:10:05.584Z,75.16
2019-05-18T07:12:35.955Z,74.79
2019-05-18T07:15:25.733Z,74.38
2019-05-18T07:18:15.495Z,74.04
2019-05-18T07:21:05.270Z,73.67
2019-05-18T07:23:55.067Z,73.32
2019-05-18T07:26:25.454Z,72.76
2019-05-18T07:29:15.224Z,72.31
2019-05-18T07:32:05.069Z,71.83
2019-05-18T07:34:35.440Z,70.44
2019-05-18T07:37:05.924Z,70.08
2019-05-18T07:39:36.318Z,69.73
2019-05-18T07:42:06.700Z,69.12
2019-05-18T07:44:37.063Z,68.67
2019-05-18T07:47:07.508Z,68.08
2019-05-18T07:49:38.031Z,66.79
2019-05-18T07:52:27.965Z,66.32
2019-05-18T07:54:58.365Z,65.19
2019-05-18T07:57:28.792Z,64.34
2019-05-18T07:59:59.259Z,64.29
2019-05-18T08:02:29.628Z,63.79
2019-05-18T08:05:00.023Z,62.77
2019-05-18T08:07:30.374Z,61.85
2019-05-18T08:10:00.904Z,61.16
2019-05-18T08:12:50.741Z,61.22
2019-05-18T08:15:21.153Z,59.92
2019-05-18T08:17:51.639Z,58.91
2019-05-18T08:20:22.147Z,58.80
2019-05-18T08:22:52.549Z,57.82
2019-05-18T08:25:22.971Z,57.27
2019-05-18T08:27:53.425Z,56.45
2019-05-18T08:30:23.876Z,55.75
2019-05-18T08:33:13.702Z,55.03
2019-05-18T08:35:44.164Z,54.33
2019-05-18T08:38:14.538Z,55.63
2019-05-18T08:40:45.018Z,55.73
2019-05-18T08:43:15.364Z,55.53
2019-05-18T08:46:05.174Z,55.55
2019-05-18T08:48:35.549Z,55.00
2019-05-18T08:51:05.973Z,55.27
2019-05-18T08:53:36.430Z,54.34
2019-05-18T08:58:56.482Z,53.48
2019-05-18T09:01:27.023Z,53.48
2019-05-18T09:03:57.469Z,53.48
2019-05-18T09:06:27.866Z,53.90
2019-05-18T09:08:58.332Z,54.26
2019-05-18T09:11:28.696Z,54.98
2019-05-18T09:13:59.074Z,55.63
2019-05-18T09:16:29.485Z,55.77
2019-05-18T09:18:59.930Z,56.51
2019-05-18T09:21:30.307Z,56.07
2019-05-18T09:24:20.074Z,55.06
2019-05-18T09:27:09.937Z,54.58
2019-05-18T09:29:40.319Z,54.47
2019-05-18T09:32:10.799Z,54.80
2019-05-18T09:34:41.260Z,54.86
2019-05-18T09:37:11.862Z,55.06
2019-05-18T09:39:42.227Z,54.79
2019-05-18T09:42:12.823Z,54.70
2019-05-18T09:44:43.191Z,54.53
2019-05-18T09:47:13.574Z,53.65
2019-05-18T09:49:43.978Z,53.56
2019-05-18T09:52:14.563Z,52.10
2019-05-18T09:54:44.970Z,51.01
2019-05-18T09:57:15.496Z,50.53
2019-05-18T09:59:45.868Z,50.75
2019-05-18T10:02:16.327Z,50.45
2019-05-18T10:04:46.705Z,50.28
2019-05-18T10:07:17.200Z,50.18
2019-05-18T10:09:47.601Z,49.96
2019-05-18T10:12:18.053Z,50.69
2019-05-18T10:14:48.573Z,51.08
2019-05-18T10:17:19.017Z,51.29
2019-05-18T10:19:49.533Z,51.29
2019-05-18T10:22:19.970Z,50.64
2019-05-18T10:24:50.480Z,49.58
2019-05-18T10:27:20.934Z,49.67
2019-05-18T10:29:51.451Z,50.04
2019-05-18T10:32:21.880Z,49.88
2019-05-18T10:34:52.305Z,49.83
2019-05-18T10:37:22.694Z,49.52
2019-05-18T10:39:53.171Z,49.50
2019-05-18T10:42:23.758Z,49.10
2019-05-18T10:44:54.175Z,48.52
2019-05-18T10:47:43.962Z,47.60
2019-05-18T10:50:33.790Z,45.80
2019-05-18T10:53:04.248Z,44.83
2019-05-18T10:55:54.083Z,44.66
2019-05-18T10:58:43.869Z,44.04
2019-05-18T11:04:36.579Z,44.34
2019-05-18T11:07:07.081Z,44.06
2019-05-18T11:12:53.591Z,44.01
2019-05-18T11:15:43.444Z,43.73
2019-05-18T11:18:33.276Z,43.46
2019-05-18T11:21:23.131Z,43.41
2019-05-18T11:24:13.021Z,43.57
2019-05-18T11:26:43.491Z,43.57
2019-05-18T11:29:33.289Z,43.23
2019-05-18T11:32:03.786Z,42.04
2019-05-18T11:34:34.196Z,41.00
2019-05-18T11:37:04.627Z,41.29
2019-05-18T11:39:36.694Z,40.87
2019-05-18T11:42:07.232Z,40.99
2019-05-18T11:44:37.569Z,40.24
2019-05-18T11:47:08.103Z,40.19
2019-05-18T11:49:38.525Z,39.65
2019-05-18T11:52:08.954Z,39.65
2019-05-18T11:54:39.499Z,39.80
2019-05-18T11:57:10.076Z,39.53
2019-05-18T11:59:40.479Z,39.23
2019-05-18T12:02:10.972Z,39.50
2019-05-18T12:04:41.392Z,39.56
2019-05-18T12:07:11.854Z,38.77
2019-05-18T12:09:42.388Z,37.96
2019-05-18T12:12:12.906Z,38.20
2019-05-18T12:15:02.740Z,38.96
2019-05-18T12:17:33.164Z,38.89
2019-05-18T12:20:03.734Z,38.52
2019-05-18T12:22:34.152Z,38.02
2019-05-18T12:25:04.623Z,38.03
2019-05-18T12:27:35.106Z,37.50
2019-05-18T12:30:05.903Z,37.67
2019-05-18T12:32:36.317Z,37.82
2019-05-18T12:35:07.109Z,37.75
2019-05-18T12:37:37.503Z,38.05
2019-05-18T12:43:10.240Z,37.42
2019-05-18T12:45:40.646Z,36.90
2019-05-18T12:48:11.072Z,36.57
2019-05-18T12:50:41.545Z,35.22
2019-05-18T12:53:12.059Z,34.85
2019-05-18T12:55:42.432Z,34.23
2019-05-18T12:58:12.960Z,34.23
2019-05-18T13:00:43.495Z,34.70
2019-05-18T13:03:13.899Z,34.40
2019-05-18T13:05:44.373Z,33.73
2019-05-18T13:08:14.852Z,33.64
2019-05-18T13:10:45.354Z,33.28
2019-05-18T13:13:15.770Z,33.22
2019-05-18T13:15:46.198Z,33.18
2019-05-18T13:18:36.144Z,33.23
2019-05-18T13:21:06.586Z,33.68
2019-05-18T13:23:37.095Z,34.15
2019-05-18T13:26:08.047Z,35.28
2019-05-18T13:28:38.574Z,36.03
2019-05-18T13:31:09.099Z,35.97
2019-05-18T13:33:39.630Z,36.05
2019-05-18T13:36:10.239Z,36.82
2019-05-18T13:38:40.830Z,37.86
2019-05-18T13:41:11.336Z,36.81
2019-05-18T13:43:41.829Z,35.90
2019-05-18T13:46:12.291Z,36.15
2019-05-18T13:48:42.729Z,35.66
2019-05-18T13:51:13.159Z,34.60
2019-05-18T13:53:43.588Z,34.22
2019-05-18T13:56:14.029Z,34.12
2019-05-18T13:58:44.523Z,33.28
2019-05-18T14:01:15.042Z,34.06
2019-05-18T14:03:45.628Z,34.45
2019-05-18T14:06:16.078Z,34.01
2019-05-18T14:08:46.670Z,32.92
2019-05-18T14:11:18.859Z,31.89
2019-05-18T14:13:49.289Z,30.58
2019-05-18T14:16:19.684Z,29.91
2019-05-18T14:18:50.069Z,29.55
2019-05-18T14:21:20.466Z,28.57
2019-05-18T14:23:50.845Z,28.28
2019-05-18T14:26:21.247Z,27.54
2019-05-18T14:28:51.661Z,25.90
2019-05-18T14:31:22.225Z,25.66
2019-05-18T14:33:52.678Z,25.16
2019-05-18T14:36:23.094Z,25.62
2019-05-18T14:38:56.926Z,24.62
2019-05-18T14:41:38.175Z,24.66
2019-05-18T14:44:08.667Z,24.23
2019-05-18T14:46:58.445Z,24.87
2019-05-18T14:49:30.875Z,23.94
2019-05-18T14:52:01.319Z,23.06
2019-05-18T14:54:50.717Z,22.75
2019-05-18T14:57:21.153Z,22.94
2019-05-18T14:59:51.664Z,22.88
2019-05-18T15:02:22.126Z,22.74
2019-05-18T15:04:55.076Z,22.32
2019-05-18T15:07:35.783Z,21.57
2019-05-18T15:12:50.204Z,22.34
2019-05-18T15:15:39.947Z,23.11
2019-05-18T15:18:29.850Z,23.44
2019-05-18T15:21:31.556Z,23.81
2019-05-18T15:24:02.773Z,22.77
2019-05-18T15:26:52.500Z,22.77
2019-05-18T15:29:22.903Z,22.02
2019-05-18T15:32:12.705Z,22.76
2019-05-18T15:34:44.729Z,24.79
2019-05-18T15:37:34.562Z,25.84
2019-05-18T15:40:05.058Z,27.32
2019-05-18T15:42:55.706Z,27.22
2019-05-18T15:45:26.753Z,27.34
2019-05-18T15:48:16.561Z,26.54
2019-05-18T15:51:06.613Z,26.71
2019-05-18T15:53:56.395Z,26.08
2019-05-18T15:56:46.251Z,24.58
2019-05-18T15:59:36.045Z,24.18
2019-05-18T16:02:25.990Z,24.23
2019-05-18T16:05:16.021Z,23.43
2019-05-18T16:08:05.825Z,22.31
2019-05-18T16:10:57.251Z,20.69
2019-05-18T16:13:38.546Z,19.39
2019-05-18T16:16:28.354Z,19.59
2019-05-18T16:19:18.184Z,19.37
2019-05-18T16:22:07.964Z,18.63
2019-05-18T16:24:57.793Z,18.82
2019-05-18T16:27:47.601Z,19.73
2019-05-18T16:30:37.449Z,19.22
2019-05-18T16:33:27.220Z,19.47
2019-05-18T16:36:17.152Z,18.71
2019-05-18T16:39:08.004Z,19.09
2019-05-18T16:41:57.812Z,19.60
2019-05-18T16:44:47.646Z,19.69
2019-05-18T16:47:37.557Z,20.07
2019-05-18T16:50:27.375Z,19.66
2019-05-18T16:53:17.155Z,20.08
2019-05-18T16:56:07.009Z,20.61
2019-05-18T16:58:56.837Z,21.38
2019-05-18T17:01:46.632Z,21.01
2019-05-18T17:04:37.253Z,21.58
2019-05-18T17:07:27.068Z,22.13
2019-05-18T17:10:16.905Z,22.28
2019-05-18T17:12:47.330Z,22.36
2019-05-18T17:15:37.496Z,22.58
2019-05-18T17:18:27.277Z,22.85
2019-05-18T17:21:17.089Z,23.02
2019-05-18T17:24:06.919Z,23.59
2019-05-18T17:26:56.722Z,24.13
2019-05-18T17:29:46.517Z,24.70
2019-05-18T17:32:36.373Z,25.54
2019-05-18T17:35:26.194Z,26.50
2019-05-18T17:38:16.048Z,27.54
2019-05-18T17:41:05.882Z,28.10
2019-05-18T17:43:55.808Z,29.01
2019-05-18T17:46:45.598Z,31.17
2019-05-18T17:49:35.404Z,33.81
2019-05-18T17:52:25.187Z,36.16
2019-05-18T17:55:16.452Z,38.05
2019-05-18T17:57:58.200Z,40.23
2019-05-18T18:00:28.656Z,41.78
2019-05-18T18:03:18.532Z,43.25
2019-05-18T18:06:08.366Z,44.91
2019-05-18T18:08:58.142Z,46.37
2019-05-18T18:11:47.972Z,47.71
2019-05-18T18:14:37.743Z,48.56
2019-05-18T18:17:27.580Z,49.75
2019-05-18T18:20:17.570Z,51.06
2019-05-18T18:23:07.401Z,52.59
2019-05-18T18:25:57.194Z,53.44
2019-05-18T18:28:47.019Z,54.44
2019-05-18T18:31:36.828Z,55.68
2019-05-18T18:34:26.749Z,56.83
2019-05-18T18:37:17.072Z,58.33
2019-05-18T18:43:13.991Z,60.67
2019-05-18T18:46:03.836Z,61.62
2019-05-18T18:48:34.793Z,62.46
2019-05-18T18:51:06.834Z,63.00
2019-05-18T18:53:56.911Z,63.99
2019-05-18T18:56:46.689Z,64.51
2019-05-18T18:59:36.519Z,65.54
2019-05-18T19:02:26.307Z,66.18
2019-05-18T19:08:22.327Z,67.49
2019-05-18T19:10:53.112Z,68.37
2019-05-18T19:16:28.343Z,68.78
2019-05-18T19:19:18.674Z,68.99
2019-05-18T19:22:12.076Z,69.66
2019-05-18T19:28:04.440Z,70.82
2019-05-18T19:30:54.949Z,71.23
2019-05-18T19:33:44.782Z,71.93
2019-05-18T19:36:34.589Z,72.39
2019-05-18T19:42:13.625Z,73.00
2019-05-18T19:44:44.195Z,73.11
2019-05-18T19:47:34.351Z,73.55
2019-05-18T19:56:13.951Z,75.17
2019-05-18T19:59:03.761Z,75.68
2019-05-18T20:01:53.610Z,76.03
2019-05-18T20:04:24.154Z,76.56
2019-05-18T20:07:14.011Z,76.63
2019-05-18T20:10:03.869Z,77.04
2019-05-18T20:12:53.679Z,77.24
2019-05-18T20:15:24.067Z,77.51
2019-05-18T20:18:13.931Z,77.70
2019-05-18T20:21:03.737Z,77.88
2019-05-18T20:23:53.585Z,78.27
2019-05-18T20:26:43.368Z,78.63
2019-05-18T20:29:33.171Z,78.85
2019-05-18T20:32:22.987Z,78.86
2019-05-18T20:35:12.814Z,78.78
2019-05-18T20:38:02.661Z,78.87
2019-05-18T20:40:52.545Z,79.04
2019-05-18T20:43:42.350Z,79.24
2019-05-18T20:46:32.149Z,79.37
2019-05-18T20:49:21.965Z,79.61
2019-05-18T20:52:11.774Z,79.71
2019-05-18T20:55:01.616Z,80.10
2019-05-18T20:57:51.971Z,80.54
2019-05-18T21:00:41.803Z,81.03
2019-05-18T21:03:31.603Z,81.46
2019-05-18T21:06:02.092Z,81.93
2019-05-18T21:08:52.008Z,82.19
2019-05-18T21:11:41.813Z,82.70
2019-05-18T21:14:31.655Z,83.36
2019-05-18T21:17:21.430Z,83.75
2019-05-18T21:23:16.377Z,83.91
2019-05-18T21:26:06.150Z,84.04
2019-05-18T21:29:00.512Z,83.92
2019-05-18T21:31:47.475Z,83.94
2019-05-18T21:34:37.285Z,84.02
2019-05-18T21:37:27.079Z,84.46
2019-05-18T21:40:16.912Z,84.67
2019-05-18T21:43:06.717Z,84.89
2019-05-18T21:45:59.203Z,84.95
2019-05-18T21:48:48.982Z,85.45
2019-05-18T21:51:38.777Z,85.64
2019-05-18T21:54:28.751Z,85.73
2019-05-18T21:57:18.580Z,85.92
2019-05-18T22:03:10.444Z,86.18
2019-05-18T22:05:42.474Z,86.49
2019-05-18T22:08:32.305Z,86.77
2019-05-18T22:11:22.105Z,87.06
2019-05-18T22:14:11.914Z,87.13
2019-05-18T22:17:01.713Z,87.46
2019-05-18T22:19:51.523Z,87.67
2019-05-18T22:22:41.349Z,87.92
2019-05-18T22:25:31.158Z,88.05
2019-05-18T22:28:01.596Z,88.22
2019-05-18T22:30:51.380Z,88.23
2019-05-18T22:33:41.189Z,88.48
2019-05-18T22:36:30.992Z,88.64
2019-05-18T22:39:20.824Z,88.75
2019-05-18T22:42:10.637Z,88.52
2019-05-18T22:45:01.539Z,88.22
2019-05-18T22:47:51.382Z,88.34
2019-05-18T22:50:41.203Z,88.77
2019-05-18T22:53:31.009Z,88.95
2019-05-18T22:56:20.833Z,89.13
2019-05-18T22:59:10.637Z,89.24
2019-05-18T23:02:00.591Z,89.39
2019-05-18T23:04:31.036Z,89.81
2019-05-18T23:07:20.853Z,90.12
2019-05-18T23:10:10.823Z,90.87
2019-05-18T23:13:00.770Z,91.37
2019-05-18T23:15:50.598Z,91.86
2019-05-18T23:18:54.509Z,92.32
2019-05-18T23:21:23.942Z,92.56
2019-05-18T23:24:13.774Z,92.61
2019-05-18T23:27:03.787Z,92.66
2019-05-18T23:29:34.181Z,92.80
2019-05-18T23:32:05.013Z,92.99
2019-05-18T23:34:54.799Z,93.11
2019-05-18T23:37:44.620Z,93.12
2019-05-18T23:40:34.392Z,93.18
2019-05-18T23:43:04.824Z,92.92
2019-05-18T23:45:54.593Z,92.20
2019-05-18T23:48:25.031Z,91.73
2019-05-18T23:51:14.797Z,91.62
2019-05-18T23:54:23.627Z,91.85
2019-05-18T23:57:13.448Z,92.11
